createdAt,value
2022-10-21T00:01:00.726Z,6.90
2022-10-21T00:03:38.016Z,7.50
2022-10-21T00:06:07.238Z,6.30
2022-10-21T00:08:36.065Z,7.50
2022-10-21T00:11:06.657Z,7.70
2022-10-21T00:13:36.828Z,7.20
2022-10-21T00:16:08.916Z,7.00
2022-10-21T00:18:39.285Z,7.80
2022-10-21T00:21:14.579Z,7.10
2022-10-21T00:23:44.071Z,7.60
2022-10-21T00:26:14.153Z,6.80
2022-10-21T00:28:43.229Z,7.40
2022-10-21T00:31:13.882Z,7.30
2022-10-21T00:33:42.638Z,7.30
2022-10-21T00:36:15.480Z,7.90
2022-10-21T00:38:46.082Z,6.90
2022-10-21T00:41:15.843Z,7.70
2022-10-21T00:43:59.858Z,6.90
2022-10-21T00:46:37.493Z,6.80
2022-10-21T00:49:12.642Z,6.40
2022-10-21T00:51:42.248Z,6.30
2022-10-21T00:54:10.907Z,6.30
2022-10-21T00:56:44.653Z,6.20
2022-10-21T00:59:14.281Z,5.60
2022-10-21T01:01:42.706Z,6.60
2022-10-21T01:04:10.853Z,6.70
2022-10-21T01:06:40.248Z,6.30
2022-10-21T01:09:08.864Z,6.20
2022-10-21T01:11:44.443Z,6.40
2022-10-21T01:14:13.520Z,6.20
2022-10-21T01:16:54.852Z,7.30
2022-10-21T01:19:48.355Z,6.80
2022-10-21T01:22:54.122Z,6.40
2022-10-21T01:25:36.779Z,5.70
2022-10-21T01:28:28.772Z,7.10
2022-10-21T01:31:13.962Z,6.60
2022-10-21T01:33:46.995Z,6.70
2022-10-21T01:36:31.126Z,6.70
2022-10-21T01:39:07.474Z,6.80
2022-10-21T01:41:48.816Z,7.00
2022-10-21T01:44:29.142Z,8.00
2022-10-21T01:47:01.342Z,7.00
2022-10-21T01:49:35.909Z,7.20
2022-10-21T01:52:05.634Z,6.90
2022-10-21T01:55:06.869Z,6.40
2022-10-21T01:57:41.410Z,6.40
2022-10-21T02:00:10.574Z,6.80
2022-10-21T02:02:44.362Z,6.50
2022-10-21T02:05:22.347Z,7.20
2022-10-21T02:07:50.867Z,7.70
2022-10-21T02:10:20.390Z,7.60
2022-10-21T02:12:52.591Z,8.50
2022-10-21T02:15:23.770Z,8.70
2022-10-21T02:18:00.052Z,8.10
2022-10-21T02:20:33.554Z,8.40
2022-10-21T02:23:03.463Z,8.30
2022-10-21T02:25:34.824Z,7.90
2022-10-21T02:28:04.442Z,8.00
2022-10-21T02:30:43.675Z,7.80
2022-10-21T02:33:24.346Z,8.90
2022-10-21T02:36:17.357Z,7.90
2022-10-21T02:38:52.003Z,8.40
2022-10-21T02:41:25.719Z,8.50
2022-10-21T02:44:00.955Z,9.00
2022-10-21T02:46:38.038Z,7.70
2022-10-21T02:49:06.479Z,9.70
2022-10-21T02:51:35.808Z,10.90
2022-10-21T02:54:04.080Z,10.80
2022-10-21T02:56:32.194Z,10.40
2022-10-21T02:59:00.127Z,12.20
2022-10-21T03:01:28.513Z,9.10
2022-10-21T03:03:56.967Z,10.30
2022-10-21T03:06:25.175Z,8.60
2022-10-21T03:08:53.370Z,7.40
2022-10-21T03:11:21.803Z,8.90
2022-10-21T03:13:50.152Z,9.20
2022-10-21T03:18:46.723Z,8.30
2022-10-21T03:21:15.023Z,8.70
2022-10-21T03:23:43.462Z,7.80
2022-10-21T03:26:11.688Z,8.60
2022-10-21T03:28:39.832Z,9.50
2022-10-21T03:31:08.024Z,10.30
2022-10-21T03:33:36.108Z,10.20
2022-10-21T03:36:05.362Z,10.10
2022-10-21T03:38:33.417Z,10.60
2022-10-21T03:41:02.386Z,10.60
2022-10-21T03:43:30.894Z,11.90
2022-10-21T03:45:58.904Z,13.10
2022-10-21T03:48:27.461Z,13.20
2022-10-21T03:50:57.218Z,13.00
2022-10-21T03:53:42.230Z,11.40
2022-10-21T03:56:12.370Z,13.10
2022-10-21T03:58:41.693Z,13.70
2022-10-21T04:01:14.667Z,13.70
2022-10-21T04:03:43.136Z,12.20
2022-10-21T04:06:11.294Z,12.20
2022-10-21T04:08:40.010Z,11.70
2022-10-21T04:11:08.204Z,11.80
2022-10-21T04:13:36.691Z,10.60
2022-10-21T04:16:07.865Z,9.20
2022-10-21T04:18:36.229Z,10.60
2022-10-21T04:21:05.178Z,11.00
2022-10-21T04:23:33.383Z,11.30
2022-10-21T04:26:02.952Z,9.80
2022-10-21T04:28:32.998Z,9.50
2022-10-21T04:31:01.279Z,10.00
2022-10-21T04:33:29.437Z,11.20
2022-10-21T04:35:59.259Z,11.00
2022-10-21T04:38:28.259Z,10.50
2022-10-21T04:40:58.781Z,9.50
2022-10-21T04:43:29.016Z,9.30
2022-10-21T04:45:57.219Z,11.40
2022-10-21T04:48:25.741Z,9.40
2022-10-21T04:50:55.230Z,12.30
2022-10-21T04:53:23.657Z,12.10
2022-10-21T04:55:53.526Z,13.20
2022-10-21T04:58:22.610Z,12.00
2022-10-21T05:00:51.783Z,12.90
2022-10-21T05:03:20.653Z,12.50
2022-10-21T05:05:52.992Z,11.10
2022-10-21T05:08:21.458Z,9.70
2022-10-21T05:10:50.365Z,9.90
2022-10-21T05:13:18.674Z,10.30
2022-10-21T05:15:46.908Z,10.70
2022-10-21T05:18:15.010Z,13.70
2022-10-21T05:20:43.189Z,13.60
2022-10-21T05:23:11.297Z,14.20
2022-10-21T05:25:39.217Z,13.90
2022-10-21T05:28:07.274Z,14.60
2022-10-21T05:30:35.662Z,13.60
2022-10-21T05:33:04.327Z,12.80
2022-10-21T05:35:32.755Z,13.60
2022-10-21T05:38:01.357Z,12.50
2022-10-21T05:40:29.691Z,10.70
2022-10-21T05:42:57.912Z,10.70
2022-10-21T05:45:27.148Z,9.50
2022-10-21T05:47:55.361Z,10.70
2022-10-21T05:50:23.550Z,10.70
2022-10-21T05:52:52.504Z,11.50
2022-10-21T05:55:22.889Z,13.60
2022-10-21T06:00:20.401Z,13.10
2022-10-21T06:02:48.793Z,12.90
2022-10-21T06:05:17.267Z,13.40
2022-10-21T06:07:45.669Z,12.80
2022-10-21T06:10:14.439Z,10.00
2022-10-21T06:12:44.013Z,10.40
2022-10-21T06:15:12.575Z,10.50
2022-10-21T06:17:41.140Z,10.50
2022-10-21T06:20:10.346Z,10.60
2022-10-21T06:22:38.982Z,9.90
2022-10-21T06:25:07.476Z,10.00
2022-10-21T06:27:36.204Z,10.10
2022-10-21T06:30:06.681Z,10.90
2022-10-21T06:32:35.837Z,10.10
2022-10-21T06:35:04.731Z,9.20
2022-10-21T06:37:33.501Z,9.40
2022-10-21T06:40:01.889Z,10.70
2022-10-21T06:42:30.519Z,11.60
2022-10-21T06:45:00.291Z,10.90
2022-10-21T06:47:28.951Z,9.40
2022-10-21T06:49:57.705Z,10.00
2022-10-21T06:54:54.419Z,9.30
2022-10-21T06:57:23.048Z,11.20
2022-10-21T06:59:51.951Z,12.20
2022-10-21T07:02:21.499Z,9.60
2022-10-21T07:04:52.731Z,11.90
2022-10-21T07:07:21.274Z,11.10
2022-10-21T07:09:49.582Z,12.50
2022-10-21T07:12:18.190Z,11.50
2022-10-21T07:14:47.532Z,12.60
2022-10-21T07:17:17.169Z,13.10
2022-10-21T07:19:45.790Z,13.50
2022-10-21T07:22:15.440Z,12.80
2022-10-21T07:24:44.515Z,9.60
2022-10-21T07:27:13.202Z,12.80
2022-10-21T07:29:41.758Z,13.50
2022-10-21T07:32:11.117Z,12.00
2022-10-21T07:34:40.263Z,12.90
2022-10-21T07:37:08.878Z,13.70
2022-10-21T07:39:37.256Z,11.80
2022-10-21T07:42:05.978Z,12.20
2022-10-21T07:44:35.085Z,13.30
2022-10-21T07:47:04.549Z,16.50
2022-10-21T07:49:33.510Z,16.70
2022-10-21T07:52:02.464Z,12.00
2022-10-21T07:54:30.762Z,17.10
2022-10-21T07:56:59.143Z,16.30
2022-10-21T07:59:27.549Z,17.30
2022-10-21T08:01:56.041Z,22.50
2022-10-21T08:04:30.089Z,16.50
2022-10-21T08:06:59.628Z,19.20
2022-10-21T08:09:28.773Z,18.80
2022-10-21T08:11:58.231Z,18.20
2022-10-21T08:14:26.826Z,12.30
2022-10-21T08:16:55.676Z,17.10
2022-10-21T08:19:30.035Z,17.10
2022-10-21T08:21:59.695Z,16.30
2022-10-21T08:24:28.519Z,15.20
2022-10-21T08:26:57.018Z,16.50
2022-10-21T08:29:27.388Z,15.80
2022-10-21T08:31:56.450Z,15.50
2022-10-21T08:34:24.742Z,15.20
2022-10-21T08:36:56.608Z,13.50
2022-10-21T08:39:25.681Z,13.80
2022-10-21T08:41:56.914Z,13.70
2022-10-21T08:44:37.858Z,10.10
2022-10-21T08:47:20.875Z,9.40
2022-10-21T08:50:17.213Z,8.10
2022-10-21T08:52:49.973Z,8.50
2022-10-21T08:55:24.398Z,9.50
2022-10-21T08:57:57.149Z,9.50
2022-10-21T09:00:33.056Z,9.30
2022-10-21T09:03:25.961Z,9.40
2022-10-21T09:06:18.274Z,8.20
2022-10-21T09:08:57.448Z,8.30
2022-10-21T09:11:42.216Z,5.50
2022-10-21T09:14:33.280Z,7.30
2022-10-21T09:17:14.048Z,8.00
2022-10-21T09:19:45.296Z,7.40
2022-10-21T09:22:34.324Z,6.30
2022-10-21T09:25:37.187Z,7.20
2022-10-21T09:28:16.724Z,10.00
2022-10-21T09:30:45.996Z,9.20
2022-10-21T09:33:37.272Z,8.50
2022-10-21T09:36:23.559Z,6.90
2022-10-21T09:39:03.832Z,8.60
2022-10-21T09:41:59.208Z,8.30
2022-10-21T09:44:30.325Z,5.60
2022-10-21T09:46:59.062Z,6.90
2022-10-21T09:50:06.425Z,8.10
2022-10-21T09:52:26.472Z,8.60
2022-10-21T09:54:57.527Z,8.90
2022-10-21T09:57:47.945Z,7.40
2022-10-21T10:00:16.907Z,8.10
2022-10-21T10:02:46.906Z,8.00
2022-10-21T10:05:49.237Z,6.50
2022-10-21T10:08:28.759Z,5.40
2022-10-21T10:11:11.751Z,6.20
2022-10-21T10:13:42.762Z,6.60
2022-10-21T10:16:19.756Z,6.90
2022-10-21T10:18:51.596Z,6.50
2022-10-21T10:21:22.697Z,7.20
2022-10-21T10:23:54.382Z,5.20
2022-10-21T10:26:29.187Z,6.30
2022-10-21T10:29:27.328Z,5.40
2022-10-21T10:32:00.659Z,6.30
2022-10-21T10:34:49.649Z,5.30
2022-10-21T10:37:24.725Z,4.40
2022-10-21T10:39:57.448Z,4.30
2022-10-21T10:42:33.554Z,6.50
2022-10-21T10:45:15.085Z,5.70
2022-10-21T10:47:49.860Z,6.70
2022-10-21T10:50:44.464Z,6.20
2022-10-21T10:53:38.678Z,7.40
2022-10-21T10:56:29.203Z,5.80
2022-10-21T10:59:24.386Z,6.80
2022-10-21T11:02:26.625Z,6.70
2022-10-21T11:05:01.024Z,5.80
2022-10-21T11:07:40.282Z,6.30
2022-10-21T11:10:35.403Z,7.10
2022-10-21T11:13:15.030Z,5.90
2022-10-21T11:15:51.537Z,7.00
2022-10-21T11:18:59.826Z,6.20
2022-10-21T11:21:40.897Z,6.40
2022-10-21T11:24:28.822Z,6.50
2022-10-21T11:27:18.213Z,6.40
2022-10-21T11:30:07.120Z,6.50
2022-10-21T11:32:50.223Z,6.10
2022-10-21T11:35:56.731Z,7.00
2022-10-21T11:38:51.608Z,6.70
2022-10-21T11:41:46.513Z,6.40
2022-10-21T11:44:34.986Z,7.10
2022-10-21T11:47:06.367Z,6.30
2022-10-21T11:50:22.785Z,6.50
2022-10-21T11:53:17.203Z,6.80
2022-10-21T11:56:00.302Z,6.80
2022-10-21T11:59:04.830Z,4.20
2022-10-21T12:01:42.630Z,7.00
2022-10-21T12:04:27.596Z,4.70
2022-10-21T12:07:08.940Z,4.90
2022-10-21T12:09:49.448Z,6.30
2022-10-21T12:12:42.942Z,6.30
2022-10-21T12:15:19.215Z,6.80
2022-10-21T12:17:49.988Z,6.60
2022-10-21T12:20:24.169Z,6.50
2022-10-21T12:23:03.898Z,5.30
2022-10-21T12:25:43.455Z,6.20
2022-10-21T12:28:42.728Z,6.00
2022-10-21T12:31:22.072Z,6.70
2022-10-21T12:33:51.486Z,5.40
2022-10-21T12:36:22.690Z,6.10
2022-10-21T12:38:58.543Z,5.10
2022-10-21T12:41:38.996Z,5.60
2022-10-21T12:44:18.126Z,5.20
2022-10-21T12:46:52.877Z,5.00
2022-10-21T12:49:26.461Z,4.90
2022-10-21T12:51:57.481Z,4.80
2022-10-21T12:54:30.724Z,5.60
2022-10-21T12:57:06.853Z,5.20
2022-10-21T12:59:39.001Z,4.90
2022-10-21T13:02:10.289Z,5.10
2022-10-21T13:04:38.481Z,4.60
2022-10-21T13:07:16.724Z,4.70
2022-10-21T13:09:51.709Z,5.30
2022-10-21T13:12:24.015Z,5.10
2022-10-21T13:15:02.193Z,5.40
2022-10-21T13:17:33.557Z,4.70
2022-10-21T13:20:19.813Z,4.70
2022-10-21T13:23:01.952Z,5.30
2022-10-21T13:25:36.368Z,5.10
2022-10-21T13:28:07.716Z,5.00
2022-10-21T13:30:39.061Z,4.90
2022-10-21T13:33:15.769Z,4.10
2022-10-21T13:35:47.667Z,4.20
2022-10-21T13:38:21.821Z,6.00
2022-10-21T13:41:25.602Z,4.90
2022-10-21T13:43:58.280Z,4.50
2022-10-21T13:46:31.909Z,5.70
2022-10-21T13:49:01.005Z,5.90
2022-10-21T13:51:33.960Z,5.70
2022-10-21T13:54:15.164Z,5.60
2022-10-21T13:56:44.149Z,5.30
2022-10-21T13:59:35.085Z,5.80
2022-10-21T14:02:05.334Z,5.20
2022-10-21T14:04:39.755Z,4.40
2022-10-21T14:07:19.616Z,6.00
2022-10-21T14:09:52.294Z,4.20
2022-10-21T14:12:42.084Z,5.20
2022-10-21T14:15:22.170Z,4.60
2022-10-21T14:17:58.474Z,4.70
2022-10-21T14:20:36.827Z,6.10
2022-10-21T14:23:08.820Z,6.00
2022-10-21T14:25:37.624Z,5.70
2022-10-21T14:28:06.053Z,6.10
2022-10-21T14:30:37.461Z,5.80
2022-10-21T14:33:08.798Z,6.80
2022-10-21T14:35:37.401Z,5.90
2022-10-21T14:38:25.783Z,6.20
2022-10-21T14:41:01.255Z,6.40
2022-10-21T14:43:38.122Z,6.70
2022-10-21T14:46:10.588Z,7.90
2022-10-21T14:48:55.244Z,7.00
2022-10-21T14:51:23.773Z,6.80
2022-10-21T14:54:02.266Z,6.90
2022-10-21T14:56:34.283Z,7.30
2022-10-21T14:59:39.538Z,6.90
2022-10-21T15:02:21.148Z,7.30
2022-10-21T15:04:55.198Z,7.10
2022-10-21T15:07:37.408Z,6.10
2022-10-21T15:10:06.264Z,6.00
2022-10-21T15:12:43.535Z,6.30
2022-10-21T15:15:40.478Z,6.80
2022-10-21T15:18:20.257Z,6.30
2022-10-21T15:20:57.150Z,8.70
2022-10-21T15:23:34.698Z,7.10
2022-10-21T15:26:19.771Z,7.00
2022-10-21T15:28:48.731Z,7.40
2022-10-21T15:31:24.315Z,7.20
2022-10-21T15:33:54.692Z,7.90
2022-10-21T15:36:24.739Z,8.30
2022-10-21T15:38:55.059Z,9.10
2022-10-21T15:41:29.649Z,7.90
2022-10-21T15:44:01.781Z,8.90
2022-10-21T15:46:34.423Z,8.00
2022-10-21T15:49:15.842Z,8.70
2022-10-21T15:51:44.570Z,9.80
2022-10-21T15:54:13.642Z,10.50
2022-10-21T15:56:43.960Z,10.00
2022-10-21T15:59:33.834Z,9.30
2022-10-21T16:02:02.705Z,12.10
2022-10-21T16:04:31.147Z,10.80
2022-10-21T16:06:59.431Z,11.80
2022-10-21T16:09:29.739Z,15.50
2022-10-21T16:12:00.787Z,18.00
2022-10-21T16:14:31.078Z,18.80
2022-10-21T16:17:00.418Z,19.10
2022-10-21T16:19:29.537Z,19.30
2022-10-21T16:21:57.573Z,18.80
2022-10-21T16:24:27.047Z,17.60
2022-10-21T16:26:55.155Z,19.20
2022-10-21T16:29:25.486Z,17.80
2022-10-21T16:31:54.269Z,18.40
2022-10-21T16:34:22.383Z,18.70
2022-10-21T16:36:51.308Z,18.50
2022-10-21T16:39:22.566Z,20.00
2022-10-21T16:41:51.889Z,19.70
2022-10-21T16:44:20.752Z,25.70
2022-10-21T16:46:55.167Z,26.30
2022-10-21T16:49:26.960Z,25.70
2022-10-21T16:51:55.338Z,24.00
2022-10-21T16:54:24.124Z,24.90
2022-10-21T16:56:55.116Z,24.70
2022-10-21T16:59:23.967Z,21.60
2022-10-21T17:01:52.413Z,21.00
2022-10-21T17:04:20.902Z,23.40
2022-10-21T17:06:49.205Z,23.40
2022-10-21T17:09:17.401Z,24.20
2022-10-21T17:11:46.694Z,27.30
2022-10-21T17:14:18.801Z,25.70
2022-10-21T17:16:47.478Z,27.80
2022-10-21T17:19:16.115Z,27.20
2022-10-21T17:21:44.756Z,24.70
2022-10-21T17:24:18.234Z,23.90
2022-10-21T17:26:46.480Z,21.80
2022-10-21T17:29:14.504Z,16.50
2022-10-21T17:31:43.864Z,17.90
2022-10-21T17:34:26.984Z,15.10
2022-10-21T17:36:55.518Z,19.00
2022-10-21T17:39:24.393Z,18.90
2022-10-21T17:41:53.416Z,20.70
2022-10-21T17:44:21.525Z,21.00
2022-10-21T17:46:54.479Z,26.00
2022-10-21T17:49:24.278Z,27.10
2022-10-21T17:51:53.462Z,26.50
2022-10-21T17:54:26.004Z,26.70
2022-10-21T17:56:57.611Z,26.20
2022-10-21T17:59:26.831Z,26.50
2022-10-21T18:01:55.044Z,26.30
2022-10-21T18:04:23.353Z,24.00
2022-10-21T18:06:51.745Z,23.60
2022-10-21T18:09:20.434Z,21.20
2022-10-21T18:11:48.992Z,22.50
2022-10-21T18:14:17.193Z,22.80
2022-10-21T18:16:45.939Z,21.70
2022-10-21T18:19:14.953Z,20.90
2022-10-21T18:21:43.232Z,20.90
2022-10-21T18:24:12.730Z,20.30
2022-10-21T18:26:41.523Z,20.00
2022-10-21T18:29:10.488Z,19.20
2022-10-21T18:31:39.464Z,19.70
2022-10-21T18:34:09.603Z,19.30
2022-10-21T18:36:38.704Z,17.70
2022-10-21T18:39:07.219Z,17.10
2022-10-21T18:41:36.880Z,17.40
2022-10-21T18:44:10.911Z,14.40
2022-10-21T18:46:41.872Z,15.00
2022-10-21T18:49:15.529Z,19.10
2022-10-21T18:51:43.912Z,17.70
2022-10-21T18:54:12.104Z,19.90
2022-10-21T18:56:41.275Z,18.70
2022-10-21T18:59:10.135Z,18.10
2022-10-21T19:01:39.287Z,18.50
2022-10-21T19:04:08.411Z,16.50
2022-10-21T19:06:38.238Z,17.30
2022-10-21T19:09:08.886Z,16.10
2022-10-21T19:11:37.600Z,15.60
2022-10-21T19:14:09.725Z,19.10
2022-10-21T19:19:10.022Z,15.70
2022-10-21T19:21:38.705Z,15.30
2022-10-21T19:24:07.411Z,16.60
2022-10-21T19:26:37.974Z,13.40
2022-10-21T19:29:08.309Z,14.60
2022-10-21T19:31:38.592Z,15.10
2022-10-21T19:34:08.163Z,15.40
2022-10-21T19:36:36.734Z,13.70
2022-10-21T19:39:05.287Z,15.00
2022-10-21T19:41:33.514Z,15.00
2022-10-21T19:44:02.559Z,14.90
2022-10-21T19:46:33.019Z,15.10
2022-10-21T19:49:02.827Z,17.30
2022-10-21T19:51:31.469Z,17.90
2022-10-21T19:54:00.050Z,16.80
2022-10-21T19:56:31.965Z,16.80
2022-10-21T19:59:05.331Z,15.80
2022-10-21T20:01:34.372Z,17.40
2022-10-21T20:04:03.581Z,16.10
2022-10-21T20:06:35.234Z,17.60
2022-10-21T20:09:09.772Z,16.40
2022-10-21T20:11:39.171Z,16.10
2022-10-21T20:14:08.074Z,16.30
2022-10-21T20:16:39.272Z,16.60
2022-10-21T20:19:08.875Z,16.20
2022-10-21T20:21:38.762Z,15.50
2022-10-21T20:24:07.671Z,15.70
2022-10-21T20:26:35.695Z,15.30
2022-10-21T20:29:04.122Z,15.10
2022-10-21T20:31:32.169Z,15.10
2022-10-21T20:34:00.341Z,14.30
2022-10-21T20:36:33.101Z,15.50
2022-10-21T20:39:03.073Z,16.20
2022-10-21T20:41:34.965Z,17.00
2022-10-21T20:44:06.195Z,15.10
2022-10-21T20:46:37.582Z,17.20
2022-10-21T20:49:07.394Z,15.60
2022-10-21T20:51:37.239Z,16.80
2022-10-21T20:54:14.546Z,16.80
2022-10-21T20:56:43.640Z,15.20
2022-10-21T20:59:17.124Z,16.00
2022-10-21T21:01:47.384Z,16.10
2022-10-21T21:04:17.629Z,15.30
2022-10-21T21:06:48.466Z,15.00
2022-10-21T21:12:09.038Z,16.30
2022-10-21T21:14:37.321Z,15.10
2022-10-21T21:17:06.129Z,15.20
2022-10-21T21:19:34.485Z,15.10
2022-10-21T21:22:05.762Z,16.40
2022-10-21T21:24:34.136Z,14.20
2022-10-21T21:27:02.474Z,15.70
2022-10-21T21:29:31.233Z,15.10
2022-10-21T21:31:59.364Z,15.40
2022-10-21T21:34:27.491Z,15.50
2022-10-21T21:36:55.696Z,14.20
2022-10-21T21:39:23.701Z,15.50
2022-10-21T21:41:51.696Z,14.80
2022-10-21T21:44:19.971Z,14.70
2022-10-21T21:46:48.265Z,16.60
2022-10-21T21:49:16.447Z,16.80
2022-10-21T21:51:44.975Z,18.30
2022-10-21T21:54:14.285Z,19.10
2022-10-21T21:56:42.515Z,21.00
2022-10-21T21:59:10.996Z,21.40
2022-10-21T22:01:39.111Z,21.00
2022-10-21T22:04:08.037Z,20.90
2022-10-21T22:06:38.058Z,20.70
2022-10-21T22:09:10.329Z,21.00
2022-10-21T22:11:39.510Z,20.10
2022-10-21T22:14:07.903Z,21.30
2022-10-21T22:16:37.083Z,19.60
2022-10-21T22:19:06.819Z,20.50
2022-10-21T22:21:35.430Z,16.70
2022-10-21T22:24:03.983Z,16.80
2022-10-21T22:26:35.387Z,16.90
2022-10-21T22:29:03.410Z,16.50
2022-10-21T22:31:32.269Z,18.70
2022-10-21T22:34:01.498Z,17.60
2022-10-21T22:36:30.133Z,18.30
2022-10-21T22:39:00.750Z,19.60
2022-10-21T22:41:28.853Z,19.50
2022-10-21T22:43:57.553Z,18.80
2022-10-21T22:46:41.201Z,18.90
2022-10-21T22:49:09.776Z,17.10
2022-10-21T22:51:37.846Z,17.50
2022-10-21T22:54:15.139Z,17.30
2022-10-21T22:56:52.480Z,16.10
2022-10-21T22:59:20.773Z,15.80
2022-10-21T23:01:48.994Z,17.00
2022-10-21T23:04:17.202Z,17.50
2022-10-21T23:06:45.238Z,16.90
2022-10-21T23:09:13.378Z,17.80
2022-10-21T23:11:41.851Z,16.50
2022-10-21T23:14:09.856Z,17.30
2022-10-21T23:16:38.201Z,17.50
2022-10-21T23:19:07.811Z,19.00
2022-10-21T23:21:36.595Z,17.40
2022-10-21T23:24:05.944Z,16.50
2022-10-21T23:26:35.911Z,18.00
2022-10-21T23:29:04.498Z,17.80
2022-10-21T23:31:33.120Z,19.10
2022-10-21T23:34:01.387Z,17.90
2022-10-21T23:36:29.958Z,16.80
2022-10-21T23:38:58.400Z,17.80
2022-10-21T23:41:27.246Z,17.50
2022-10-21T23:43:56.103Z,17.50
2022-10-21T23:46:24.403Z,17.40
2022-10-21T23:48:52.847Z,17.60
2022-10-21T23:51:21.176Z,18.40
2022-10-21T23:53:49.384Z,17.50
2022-10-21T23:56:17.550Z,17.40
2022-10-21T23:58:45.844Z,17.80
